Time;durP1;ratioP1;P1;durP2;ratioP2;P2;SDS_P1;SDS_P2;PMS_P1;PMS_P2;Temp;Humidity;BMP_temperature;BMP_pressure;BME280_temperature;BME280_humidity;BME280_pressure;Samples;Min_cycle;Max_cycle;Signal;HPM_P1;HPM_P2
2022/03/17 00:02:19;;;;;;;;;;;;;;;5.62;57.15;100916.62;4403873;32;34001;-81
2022/03/17 00:04:48;;;;;;;;;;;;;;;5.47;57.41;100919.22;4399375;32;34805;-81
2022/03/17 00:07:15;;;;;;;;;;;;;;;5.54;57.82;100918.81;4398550;32;32877;-80
2022/03/17 00:09:42;;;;;;;;;;;;;;;5.50;57.64;100922.56;4398827;32;33207;-80
2022/03/17 00:12:10;;;;;;;;;;;;;;;5.27;58.69;100927.41;4394382;32;32091;-80
2022/03/17 00:14:37;;;;;;;;;;;;;;;5.37;58.87;100923.31;4386507;32;35458;-79
2022/03/17 00:17:04;;;;;;;;;;;;;;;5.31;59.74;100936.00;4385865;32;34320;-81
2022/03/17 00:19:32;;;;;;;;;;;;;;;5.55;59.22;100941.63;4399197;32;31643;-80
2022/03/17 00:21:59;;;;;;;;;;;;;;;5.44;59.51;100937.88;4372030;32;34033;-80
2022/03/17 00:24:27;;;;;;;;;;;;;;;5.18;59.56;100940.25;4371238;32;33601;-81
2022/03/17 00:26:55;;;;;;;;;;;;;;;5.07;59.88;100942.63;4377906;32;34716;-80
2022/03/17 00:29:22;;;;;;;;;;;;;;;5.23;59.75;100936.44;4411477;32;32676;-80
2022/03/17 00:31:50;;;;;;;;;;;;;;;5.42;59.09;100941.53;4406102;32;34132;-80
2022/03/17 00:34:17;;;;;;;;;;;;;;;5.60;58.24;100941.38;4382504;32;35048;-82
2022/03/17 00:36:47;;;;;;;;;;;;;;;5.67;57.64;100946.22;4392414;32;34487;-81
2022/03/17 00:39:15;;;;;;;;;;;;;;;5.39;58.20;100939.94;4406488;32;33347;-80
2022/03/17 00:41:43;;;;;;;;;;;;;;;5.46;58.16;100943.09;4392031;32;34262;-80
2022/03/17 00:44:11;;;;;;;;;;;;;;;5.27;59.14;100943.22;4380744;32;34570;-81
2022/03/17 00:46:39;;;;;;;;;;;;;;;5.37;58.80;100933.88;4383386;32;33905;-80
2022/03/17 00:49:07;;;;;;;;;;;;;;;5.39;58.39;100937.31;4385868;32;33222;-81
2022/03/17 00:51:34;;;;;;;;;;;;;;;5.30;59.07;100934.31;4398440;32;33535;-80
2022/03/17 00:54:01;;;;;;;;;;;;;;;5.19;59.55;100940.16;4384182;32;34957;-80
2022/03/17 00:56:29;;;;;;;;;;;;;;;5.26;59.31;100938.06;4385566;32;34715;-80
2022/03/17 00:58:56;;;;;;;;;;;;;;;5.13;59.41;100937.00;4408333;32;34010;-79
2022/03/17 01:01:24;;;;;;;;;;;;;;;5.10;59.73;100951.19;4398641;32;31966;-80
2022/03/17 01:03:51;;;;;;;;;;;;;;;5.35;59.13;100950.75;4384976;32;33899;-81
2022/03/17 01:06:19;;;;;;;;;;;;;;;5.13;59.79;100956.31;4373857;32;36087;-80
2022/03/17 01:08:46;;;;;;;;;;;;;;;5.34;59.52;100956.94;4379542;32;31529;-81
2022/03/17 01:11:14;;;;;;;;;;;;;;;5.47;59.14;100954.41;4374985;32;33755;-80
2022/03/17 01:13:42;;;;;;;;;;;;;;;5.51;59.09;100949.81;4385690;32;34869;-81
2022/03/17 01:16:10;;;;;;;;;;;;;;;5.72;58.45;100960.03;4381696;32;35085;-80
2022/03/17 01:18:37;;;;;;;;;;;;;;;5.84;57.74;100958.50;4379940;32;33098;-80
2022/03/17 01:21:06;;;;;;;;;;;;;;;5.93;57.11;100952.69;4386249;32;33413;-80
2022/03/17 01:23:34;;;;;;;;;;;;;;;5.96;56.70;100958.66;4388252;32;34101;-81
2022/03/17 01:26:01;;;;;;;;;;;;;;;5.84;57.18;100954.09;4414868;32;35497;-80
2022/03/17 01:28:29;;;;;;;;;;;;;;;5.83;57.38;100954.16;4398505;32;32756;-81
2022/03/17 01:30:56;;;;;;;;;;;;;;;5.84;56.98;100955.87;4395640;32;34146;-79
2022/03/17 01:33:23;;;;;;;;;;;;;;;5.94;56.47;100950.00;4378898;32;33870;-80
2022/03/17 01:35:51;;;;;;;;;;;;;;;5.80;56.79;100946.44;4374806;32;34449;-79
2022/03/17 01:38:18;;;;;;;;;;;;;;;5.70;57.16;100956.59;4391705;32;31456;-80
2022/03/17 01:40:45;;;;;;;;;;;;;;;5.78;56.74;100948.28;4400705;32;33234;-80
2022/03/17 01:43:13;;;;;;;;;;;;;;;5.83;56.31;100948.87;4389372;32;34927;-81
2022/03/17 01:45:40;;;;;;;;;;;;;;;5.64;56.69;100949.03;4395026;32;34960;-81
2022/03/17 01:48:07;;;;;;;;;;;;;;;5.78;56.23;100958.84;4387578;32;32527;-81
2022/03/17 01:50:38;;;;;;;;;;;;;;;5.67;56.50;100958.59;4374840;32;33449;-80
2022/03/17 01:53:06;;;;;;;;;;;;;;;5.46;56.91;100954.47;4399978;32;34704;-81
2022/03/17 01:55:34;;;;;;;;;;;;;;;5.47;57.18;100953.53;4411518;32;34822;-80
2022/03/17 01:58:01;;;;;;;;;;;;;;;5.21;58.53;100955.91;4388190;32;32477;-81
2022/03/17 02:00:28;;;;;;;;;;;;;;;5.29;58.43;100957.19;4388257;32;33784;-80
2022/03/17 02:02:56;;;;;;;;;;;;;;;5.03;59.83;100962.16;4409300;32;35797;-79
2022/03/17 02:05:24;;;;;;;;;;;;;;;5.24;59.43;100961.88;4414281;32;34511;-81
2022/03/17 02:07:51;;;;;;;;;;;;;;;5.40;58.88;100965.38;4392252;32;32457;-80
2022/03/17 02:10:19;;;;;;;;;;;;;;;5.37;59.03;100965.53;4400251;32;33989;-80
2022/03/17 02:15:33;;;;;;;;;;;;;;;5.41;58.40;100968.87;4402809;32;34385;-80
2022/03/17 02:18:02;;;;;;;;;;;;;;;5.27;58.82;100979.31;4373307;32;33175;-81
2022/03/17 02:20:29;;;;;;;;;;;;;;;4.97;59.76;100983.56;4401907;32;34084;-81
2022/03/17 02:25:33;;;;;;;;;;;;;;;5.17;59.18;100978.12;4410049;32;33560;-80
2022/03/17 02:25:47;;;;;;;;;;;;;;;5.26;58.90;100978.47;4411757;32;34439;-80
2022/03/17 02:28:14;;;;;;;;;;;;;;;5.47;58.26;100978.16;4377064;32;34628;-80
2022/03/17 02:30:42;;;;;;;;;;;;;;;5.27;58.73;100981.97;4399939;32;34575;-80
2022/03/17 02:33:11;;;;;;;;;;;;;;;5.38;58.32;100980.44;4394219;32;35690;-80
2022/03/17 02:35:39;;;;;;;;;;;;;;;5.47;58.05;100987.84;4376641;32;35798;-80
2022/03/17 02:38:07;;;;;;;;;;;;;;;5.52;57.62;100989.28;4388932;32;33092;-80
2022/03/17 02:40:35;;;;;;;;;;;;;;;5.06;59.09;100998.91;4385407;32;32604;-80
2022/03/17 02:43:04;;;;;;;;;;;;;;;5.24;58.65;100995.28;4399362;32;35356;-81
2022/03/17 02:45:33;;;;;;;;;;;;;;;5.18;58.88;101000.91;4385850;32;34300;-81
2022/03/17 02:48:04;;;;;;;;;;;;;;;5.11;59.46;101002.16;4392636;32;33474;-81
2022/03/17 02:50:32;;;;;;;;;;;;;;;5.24;59.48;101005.84;4386853;32;34222;-81
2022/03/17 02:53:05;;;;;;;;;;;;;;;4.87;59.76;101009.59;4378505;32;35344;-81
2022/03/17 02:55:34;;;;;;;;;;;;;;;5.25;59.12;101007.56;4413987;32;34533;-80
2022/03/17 02:58:02;;;;;;;;;;;;;;;5.26;59.09;101004.00;4414499;32;32884;-80
2022/03/17 03:00:29;;;;;;;;;;;;;;;5.45;58.34;101013.47;4387495;32;33671;-81
2022/03/17 03:02:57;;;;;;;;;;;;;;;5.46;58.04;101012.53;4380965;32;36125;-80
2022/03/17 03:05:26;;;;;;;;;;;;;;;5.15;59.17;101016.87;4398458;32;33007;-80
2022/03/17 03:07:53;;;;;;;;;;;;;;;5.38;58.44;101022.66;4395349;32;32861;-79
2022/03/17 03:10:21;;;;;;;;;;;;;;;5.22;58.59;101023.56;4405506;32;33863;-81
2022/03/17 03:12:48;;;;;;;;;;;;;;;5.31;58.54;101033.63;4377872;32;33130;-81
2022/03/17 03:15:16;;;;;;;;;;;;;;;5.34;58.59;101026.41;4376970;32;34742;-80
2022/03/17 03:17:43;;;;;;;;;;;;;;;5.36;58.65;101028.97;4405883;32;33046;-81
2022/03/17 03:20:11;;;;;;;;;;;;;;;5.39;58.58;101031.44;4406303;32;34377;-80
2022/03/17 03:22:39;;;;;;;;;;;;;;;5.39;58.57;101027.03;4384971;32;36102;-81
2022/03/17 03:25:07;;;;;;;;;;;;;;;5.24;58.93;101021.69;4389446;32;33244;-81
2022/03/17 03:27:37;;;;;;;;;;;;;;;5.38;58.61;101025.28;4381085;32;32480;-81
2022/03/17 03:30:04;;;;;;;;;;;;;;;5.23;58.95;101018.22;4413988;32;33904;-80
2022/03/17 03:32:32;;;;;;;;;;;;;;;5.23;58.91;101017.34;4413855;32;35568;-81
2022/03/17 03:37:22;;;;;;;;;;;;;;;5.22;59.02;101016.50;4399654;32;34594;-81
2022/03/17 03:37:47;;;;;;;;;;;;;;;5.20;59.56;101022.78;4414218;32;34033;-80
2022/03/17 03:40:15;;;;;;;;;;;;;;;4.93;60.59;101025.09;4414348;32;33892;-80
2022/03/17 03:42:42;;;;;;;;;;;;;;;5.04;60.15;101027.16;4414556;32;35173;-81
2022/03/17 03:45:10;;;;;;;;;;;;;;;4.94;60.33;101028.56;4400042;32;34328;-80
2022/03/17 03:47:37;;;;;;;;;;;;;;;4.84;60.80;101027.34;4413955;32;31727;-80
2022/03/17 03:50:05;;;;;;;;;;;;;;;4.86;60.78;101033.37;4414321;32;33871;-80
2022/03/17 03:52:32;;;;;;;;;;;;;;;4.98;60.17;101030.13;4400031;32;35081;-80
2022/03/17 03:54:59;;;;;;;;;;;;;;;4.88;60.10;101040.28;4399707;32;34816;-80
2022/03/17 03:57:27;;;;;;;;;;;;;;;5.00;59.73;101037.00;4413662;32;33827;-81
2022/03/17 03:59:55;;;;;;;;;;;;;;;4.99;59.27;101029.19;4413916;32;33533;-81
2022/03/17 04:02:23;;;;;;;;;;;;;;;5.04;59.08;101033.28;4414005;32;35105;-81
2022/03/17 04:04:50;;;;;;;;;;;;;;;5.18;58.20;101022.03;4387119;32;32974;-79
2022/03/17 04:07:18;;;;;;;;;;;;;;;4.94;58.66;101021.53;4399381;32;34144;-80
2022/03/17 04:09:45;;;;;;;;;;;;;;;5.26;57.55;101009.28;4399595;32;33890;-80
2022/03/17 04:12:13;;;;;;;;;;;;;;;5.06;58.05;101012.97;4387746;32;35959;-82
2022/03/17 04:14:40;;;;;;;;;;;;;;;4.99;57.89;101008.09;4387184;32;34015;-79
2022/03/17 04:17:13;;;;;;;;;;;;;;;4.75;58.28;101012.00;4387061;32;33257;-80
2022/03/17 04:19:40;;;;;;;;;;;;;;;4.49;59.77;101004.53;4387233;32;33256;-80
2022/03/17 04:22:07;;;;;;;;;;;;;;;5.08;57.90;101004.97;4399400;32;35655;-81
2022/03/17 04:24:37;;;;;;;;;;;;;;;4.76;58.77;101005.78;4399537;32;33986;-80
2022/03/17 04:27:06;;;;;;;;;;;;;;;4.76;58.39;101008.41;4399863;32;32819;-79
2022/03/17 04:29:34;;;;;;;;;;;;;;;4.55;58.46;101020.06;4399964;32;34518;-80
2022/03/17 04:32:01;;;;;;;;;;;;;;;4.40;59.15;101028.72;4399948;32;34445;-79
2022/03/17 04:34:29;;;;;;;;;;;;;;;4.49;59.24;101038.78;4388555;32;33348;-80
2022/03/17 04:36:56;;;;;;;;;;;;;;;4.29;59.32;101049.47;4389196;32;34762;-79
2022/03/17 04:39:23;;;;;;;;;;;;;;;4.28;58.83;101053.91;4416197;32;34636;-80
2022/03/17 04:41:51;;;;;;;;;;;;;;;4.46;58.23;101054.78;4401333;32;34548;-80
2022/03/17 04:44:24;;;;;;;;;;;;;;;4.74;57.27;101052.47;4393124;32;34124;-79
2022/03/17 04:46:52;;;;;;;;;;;;;;;5.15;55.51;101049.41;4401675;32;33225;-79
2022/03/17 04:49:19;;;;;;;;;;;;;;;4.97;55.88;101047.72;4415149;32;35768;-79
2022/03/17 04:51:47;;;;;;;;;;;;;;;4.82;56.46;101051.13;4401205;32;34716;-79
2022/03/17 04:54:15;;;;;;;;;;;;;;;4.61;57.44;101054.84;4415340;32;34446;-78
2022/03/17 04:56:42;;;;;;;;;;;;;;;4.62;57.29;101050.44;4401351;32;32812;-79
2022/03/17 04:59:10;;;;;;;;;;;;;;;4.41;57.92;101057.63;4376269;32;33805;-80
2022/03/17 05:01:37;;;;;;;;;;;;;;;4.58;57.48;101062.94;4388581;32;35461;-78
2022/03/17 05:04:05;;;;;;;;;;;;;;;4.74;57.03;101066.50;4415229;32;34096;-79
2022/03/17 05:06:32;;;;;;;;;;;;;;;4.56;57.68;101067.44;4388655;32;33300;-78
2022/03/17 05:08:59;;;;;;;;;;;;;;;4.61;57.59;101067.19;4400747;32;34578;-79
2022/03/17 05:11:26;;;;;;;;;;;;;;;4.73;57.09;101072.69;4415454;32;35119;-79
2022/03/17 05:13:54;;;;;;;;;;;;;;;4.90;56.64;101079.75;4400556;32;33114;-79
2022/03/17 05:16:21;;;;;;;;;;;;;;;4.79;56.73;101090.00;4401023;32;32884;-79
2022/03/17 05:18:51;;;;;;;;;;;;;;;4.68;56.76;101102.84;4400835;32;33205;-79
2022/03/17 05:21:19;;;;;;;;;;;;;;;4.39;56.96;101109.56;4415166;32;35334;-79
2022/03/17 05:23:46;;;;;;;;;;;;;;;4.54;56.04;101121.13;4388949;32;34504;-79
2022/03/17 05:26:14;;;;;;;;;;;;;;;4.69;55.57;101125.63;4401414;32;33541;-80
2022/03/17 05:28:42;;;;;;;;;;;;;;;4.95;55.04;101114.66;4401345;32;33304;-80
2022/03/17 05:31:10;;;;;;;;;;;;;;;4.97;54.81;101110.12;4401049;32;34756;-79
2022/03/17 05:33:38;;;;;;;;;;;;;;;4.80;55.28;101112.78;4415454;32;33984;-80
2022/03/17 05:36:05;;;;;;;;;;;;;;;4.59;56.17;101117.34;4415823;32;33239;-81
2022/03/17 05:38:33;;;;;;;;;;;;;;;4.81;55.95;101127.69;4388964;32;32980;-78
2022/03/17 05:41:00;;;;;;;;;;;;;;;4.96;55.51;101127.75;4400611;32;34659;-84
2022/03/17 05:43:28;;;;;;;;;;;;;;;4.63;56.87;101145.22;4414479;32;35389;-79
2022/03/17 05:45:55;;;;;;;;;;;;;;;4.87;56.23;101151.09;4400117;32;31747;-80
2022/03/17 05:48:23;;;;;;;;;;;;;;;4.81;56.13;101157.50;4414739;32;33666;-79
2022/03/17 05:50:50;;;;;;;;;;;;;;;5.26;54.67;101157.03;4400632;32;35053;-79
2022/03/17 05:53:17;;;;;;;;;;;;;;;5.54;54.00;101161.66;4400514;32;35580;-81
2022/03/17 05:55:45;;;;;;;;;;;;;;;5.52;54.04;101154.75;4414826;32;33949;-79
2022/03/17 05:58:13;;;;;;;;;;;;;;;5.80;53.69;101162.94;4400523;32;34080;-80
2022/03/17 06:00:40;;;;;;;;;;;;;;;5.86;53.52;101160.00;4387643;32;35294;-80
2022/03/17 06:03:08;;;;;;;;;;;;;;;5.61;54.26;101159.53;4414956;32;34131;-79
2022/03/17 06:05:35;;;;;;;;;;;;;;;5.84;53.73;101169.75;4414814;32;33062;-79
2022/03/17 06:08:09;;;;;;;;;;;;;;;5.53;54.93;101174.91;4401442;32;33529;-79
2022/03/17 06:10:37;;;;;;;;;;;;;;;5.97;54.05;101181.41;4400177;32;35077;-80
2022/03/17 06:13:05;;;;;;;;;;;;;;;5.79;54.75;101177.94;4400557;32;34465;-79
2022/03/17 06:15:35;;;;;;;;;;;;;;;5.99;54.31;101183.03;4400478;32;32482;-79
2022/03/17 06:18:04;;;;;;;;;;;;;;;6.20;54.03;101178.34;4400643;32;33467;-79
2022/03/17 06:23:34;;;;;;;;;;;;;;;6.69;52.96;101180.84;4401191;26;35431;-80
2022/03/17 06:26:02;;;;;;;;;;;;;;;7.20;51.93;101184.94;4398224;32;33898;-80
2022/03/17 06:28:30;;;;;;;;;;;;;;;7.33;51.63;101194.72;4396735;32;33907;-81
2022/03/17 06:30:57;;;;;;;;;;;;;;;7.33;51.45;101192.06;4413883;32;36106;-80
2022/03/17 06:33:25;;;;;;;;;;;;;;;7.45;52.08;101198.44;4411332;32;35998;-80
2022/03/17 06:35:52;;;;;;;;;;;;;;;7.69;50.53;101197.84;4411487;32;34258;-81
2022/03/17 06:38:20;;;;;;;;;;;;;;;7.46;50.28;101198.34;4400439;32;34750;-80
2022/03/17 06:40:48;;;;;;;;;;;;;;;7.90;47.47;101196.53;4405887;32;35047;-80
2022/03/17 06:43:15;;;;;;;;;;;;;;;7.80;46.12;101192.72;4399849;32;32689;-82
2022/03/17 06:45:44;;;;;;;;;;;;;;;7.84;46.34;101191.59;4408125;32;33943;-80
2022/03/17 06:48:11;;;;;;;;;;;;;;;8.22;45.66;101189.28;4399216;32;33192;-80
2022/03/17 06:50:38;;;;;;;;;;;;;;;8.12;45.49;101190.75;4397854;32;35333;-80
2022/03/17 06:53:06;;;;;;;;;;;;;;;8.40;45.62;101199.56;4405365;32;35113;-81
2022/03/17 06:55:34;;;;;;;;;;;;;;;8.61;45.26;101196.41;4392070;32;33115;-80
2022/03/17 06:58:01;;;;;;;;;;;;;;;8.54;45.52;101202.22;4392685;32;32109;-81
2022/03/17 07:00:31;;;;;;;;;;;;;;;8.92;43.46;101198.81;4398204;32;35385;-80
2022/03/17 07:03:00;;;;;;;;;;;;;;;8.71;44.08;101201.97;4385849;32;35526;-80
2022/03/17 07:05:28;;;;;;;;;;;;;;;9.16;43.08;101209.63;4382811;32;32515;-80
2022/03/17 07:07:55;;;;;;;;;;;;;;;8.97;43.24;101209.13;4387519;32;34778;-81
2022/03/17 07:10:23;;;;;;;;;;;;;;;9.28;42.38;101199.00;4385393;32;34800;-80
2022/03/17 07:12:50;;;;;;;;;;;;;;;8.98;42.66;101209.00;4399920;32;34771;-81
2022/03/17 07:15:17;;;;;;;;;;;;;;;8.56;43.86;101214.44;4412561;32;32596;-81
2022/03/17 07:17:45;;;;;;;;;;;;;;;8.75;43.46;101201.69;4386566;32;35030;-80
2022/03/17 07:20:13;;;;;;;;;;;;;;;8.81;43.71;101189.81;4397847;32;36522;-81
2022/03/17 07:22:43;;;;;;;;;;;;;;;8.58;44.77;101201.03;4387090;32;34735;-80
2022/03/17 07:25:11;;;;;;;;;;;;;;;8.69;44.70;101209.19;4391936;32;33124;-81
2022/03/17 07:27:40;;;;;;;;;;;;;;;8.72;44.71;101198.38;4408404;32;34441;-81
2022/03/17 07:30:12;;;;;;;;;;;;;;;8.97;44.54;101211.78;4401461;32;34784;-81
2022/03/17 07:32:40;;;;;;;;;;;;;;;8.92;45.03;101211.19;4402857;32;34549;-80
2022/03/17 07:35:08;;;;;;;;;;;;;;;8.96;44.44;101210.91;4394345;32;32315;-83
2022/03/17 07:37:36;;;;;;;;;;;;;;;8.87;46.01;101214.16;4399991;32;33490;-80
2022/03/17 07:40:03;;;;;;;;;;;;;;;8.87;45.22;101207.97;4408310;32;35738;-80
2022/03/17 07:42:30;;;;;;;;;;;;;;;8.94;45.29;101212.81;4395161;32;33878;-81
2022/03/17 07:45:03;;;;;;;;;;;;;;;9.44;44.49;101212.97;4402697;32;32685;-82
2022/03/17 07:47:33;;;;;;;;;;;;;;;9.55;43.54;101210.44;4381769;32;34000;-80
2022/03/17 07:50:04;;;;;;;;;;;;;;;9.64;43.30;101212.47;4374595;32;34576;-79
2022/03/17 07:52:32;;;;;;;;;;;;;;;9.66;42.99;101205.22;4408157;32;35231;-80
2022/03/17 07:55:00;;;;;;;;;;;;;;;9.65;43.63;101213.31;4397202;32;33774;-81
2022/03/17 07:57:27;;;;;;;;;;;;;;;9.99;42.71;101202.94;4416682;26;32726;-82
2022/03/17 07:59:54;;;;;;;;;;;;;;;9.76;43.00;101205.47;4383668;32;36043;-83
2022/03/17 08:02:22;;;;;;;;;;;;;;;9.64;43.46;101214.28;4370080;32;36018;-83
2022/03/17 08:04:50;;;;;;;;;;;;;;;10.10;42.51;101213.69;4369376;32;33430;-84
2022/03/17 08:07:18;;;;;;;;;;;;;;;10.13;41.70;101217.94;4370966;32;33859;-83
2022/03/17 08:09:45;;;;;;;;;;;;;;;9.92;42.89;101224.72;4370686;32;35369;-83
2022/03/17 08:12:13;;;;;;;;;;;;;;;9.87;43.96;101219.72;4381909;32;34607;-84
2022/03/17 08:14:41;;;;;;;;;;;;;;;9.96;42.98;101223.56;4370807;32;33527;-85
2022/03/17 08:17:09;;;;;;;;;;;;;;;10.24;44.24;101218.91;4384730;32;34296;-85
2022/03/17 08:19:37;;;;;;;;;;;;;;;10.08;43.42;101228.91;4358083;32;33595;-84
2022/03/17 08:22:05;;;;;;;;;;;;;;;10.05;43.45;101225.59;4355937;32;33714;-81
2022/03/17 08:24:33;;;;;;;;;;;;;;;10.15;43.26;101234.66;4357603;32;34205;-82
2022/03/17 08:27:02;;;;;;;;;;;;;;;10.13;43.16;101232.12;4382394;32;33797;-82
2022/03/17 08:29:30;;;;;;;;;;;;;;;10.23;43.67;101237.63;4382199;32;34822;-83
2022/03/17 08:31:59;;;;;;;;;;;;;;;10.14;44.05;101239.12;4346713;32;33411;-84
2022/03/17 08:34:26;;;;;;;;;;;;;;;10.49;43.05;101232.16;4371651;32;33935;-81
2022/03/17 08:36:55;;;;;;;;;;;;;;;10.59;42.26;101227.88;4359093;32;32439;-83
2022/03/17 08:39:23;;;;;;;;;;;;;;;10.45;43.22;101233.34;4358377;32;34931;-83
2022/03/17 08:41:51;;;;;;;;;;;;;;;10.74;42.62;101247.25;4358966;32;34028;-83
2022/03/17 08:44:19;;;;;;;;;;;;;;;10.66;42.51;101247.78;4370932;32;32178;-83
2022/03/17 08:49:33;;;;;;;;;;;;;;;11.11;41.25;101241.78;4372954;32;36060;-83
2022/03/17 08:52:01;;;;;;;;;;;;;;;10.92;41.65;101241.44;4358319;32;34343;-85
2022/03/17 08:54:29;;;;;;;;;;;;;;;11.01;41.41;101250.53;4370886;32;33305;-84
2022/03/17 08:57:00;;;;;;;;;;;;;;;11.07;41.61;101250.13;4358834;32;34275;-85
2022/03/17 08:59:31;;;;;;;;;;;;;;;11.20;41.28;101250.91;4384988;32;35783;-82
2022/03/17 09:02:11;;;;;;;;;;;;;;;11.28;41.86;101252.88;4371051;32;34243;-84
2022/03/17 09:04:39;;;;;;;;;;;;;;;11.35;41.37;101251.47;4370894;32;31798;-83
2022/03/17 09:07:07;;;;;;;;;;;;;;;11.45;40.92;101249.81;4384888;32;33523;-84
2022/03/17 09:09:35;;;;;;;;;;;;;;;11.61;40.46;101247.75;4382535;32;33532;-84
2022/03/17 09:12:05;;;;;;;;;;;;;;;11.75;40.49;101258.19;4371574;32;34277;-84
2022/03/17 09:14:40;;;;;;;;;;;;;;;11.93;39.57;101247.97;4371102;32;32887;-84
2022/03/17 09:17:07;;;;;;;;;;;;;;;11.63;40.91;101261.81;4384519;32;34255;-84
2022/03/17 09:19:37;;;;;;;;;;;;;;;11.64;40.25;101260.00;4383012;32;35667;-83
2022/03/17 09:22:04;;;;;;;;;;;;;;;11.58;40.48;101263.13;4383878;32;33856;-84
2022/03/17 09:24:31;;;;;;;;;;;;;;;11.52;40.59;101263.53;4370798;32;33012;-84
2022/03/17 09:26:59;;;;;;;;;;;;;;;11.43;41.33;101254.41;4370083;32;34839;-84
2022/03/17 09:29:28;;;;;;;;;;;;;;;11.68;40.97;101256.12;4370782;32;35415;-82
2022/03/17 09:31:58;;;;;;;;;;;;;;;11.62;40.67;101259.28;4370006;32;35021;-81
2022/03/17 09:34:26;;;;;;;;;;;;;;;11.52;40.23;101255.53;4370388;32;32213;-82
2022/03/17 09:36:54;;;;;;;;;;;;;;;11.67;39.44;101254.44;4383418;32;32600;-83
2022/03/17 09:42:07;;;;;;;;;;;;;;;11.81;40.58;101260.41;4370289;32;34306;-84
2022/03/17 09:44:35;;;;;;;;;;;;;;;11.85;39.65;101253.91;4358281;32;33180;-82
2022/03/17 09:47:03;;;;;;;;;;;;;;;11.65;39.41;101256.38;4383746;32;34583;-81
2022/03/17 09:49:33;;;;;;;;;;;;;;;11.41;40.02;101258.16;4384403;32;36082;-81
2022/03/17 09:52:04;;;;;;;;;;;;;;;11.38;39.70;101261.94;4370767;32;33016;-82
2022/03/17 09:54:35;;;;;;;;;;;;;;;11.34;40.62;101262.25;4370705;32;34315;-83
2022/03/17 09:57:02;;;;;;;;;;;;;;;11.37;40.43;101267.34;4382360;32;33035;-82
2022/03/17 09:59:30;;;;;;;;;;;;;;;11.61;40.43;101260.22;4370441;32;34571;-84
2022/03/17 10:01:57;;;;;;;;;;;;;;;11.72;39.25;101261.09;4370689;32;34658;-84
2022/03/17 10:04:29;;;;;;;;;;;;;;;11.70;39.37;101257.72;4357380;32;32701;-86
2022/03/17 10:06:58;;;;;;;;;;;;;;;11.95;39.00;101254.88;4370241;32;33383;-83
2022/03/17 10:09:27;;;;;;;;;;;;;;;11.83;39.31;101254.97;4384709;32;34387;-83
2022/03/17 10:12:09;;;;;;;;;;;;;;;12.00;39.55;101244.69;4356878;32;33451;-85
2022/03/17 10:14:38;;;;;;;;;;;;;;;12.20;38.64;101246.66;4381622;32;32326;-85
2022/03/17 10:17:06;;;;;;;;;;;;;;;12.41;39.92;101244.16;4370664;32;34621;-85
2022/03/17 10:19:34;;;;;;;;;;;;;;;12.41;38.52;101237.00;4383533;32;36091;-82
2022/03/17 10:22:08;;;;;;;;;;;;;;;12.47;37.83;101247.16;4378522;32;32939;-83
2022/03/17 10:24:37;;;;;;;;;;;;;;;12.31;38.52;101252.03;4369906;32;33140;-84
2022/03/17 10:27:04;;;;;;;;;;;;;;;12.43;38.78;101239.53;4370399;32;34859;-86
2022/03/17 10:29:31;;;;;;;;;;;;;;;12.84;38.28;101247.78;4370979;32;35361;-85
2022/03/17 10:32:05;;;;;;;;;;;;;;;13.08;38.40;101243.13;4371489;32;34408;-84
2022/03/17 10:34:35;;;;;;;;;;;;;;;13.49;36.32;101244.09;4384526;32;33678;-84
2022/03/17 10:37:07;;;;;;;;;;;;;;;13.54;35.57;101244.56;4367738;32;34281;-84
2022/03/17 10:39:36;;;;;;;;;;;;;;;13.63;35.93;101245.59;4365797;32;35557;-84
2022/03/17 10:42:09;;;;;;;;;;;;;;;13.57;36.02;101243.44;4377621;32;34479;-85
2022/03/17 10:44:41;;;;;;;;;;;;;;;12.97;37.20;101252.03;4356136;32;33494;-85
2022/03/17 10:47:10;;;;;;;;;;;;;;;13.33;37.24;101243.66;4357186;32;35107;-84
2022/03/17 10:49:38;;;;;;;;;;;;;;;13.68;36.17;101251.44;4381093;32;35537;-85
2022/03/17 10:52:05;;;;;;;;;;;;;;;14.09;35.63;101246.94;4357541;32;34355;-84
2022/03/17 10:54:32;;;;;;;;;;;;;;;14.05;34.88;101255.38;4370349;32;33180;-84
2022/03/17 10:57:04;;;;;;;;;;;;;;;13.86;35.50;101252.56;4369724;32;33744;-84
2022/03/17 10:59:44;;;;;;;;;;;;;;;13.81;35.45;101257.44;4370653;32;34684;-84
2022/03/17 11:02:21;;;;;;;;;;;;;;;13.56;35.35;101258.66;4383373;32;34428;-85
2022/03/17 11:04:49;;;;;;;;;;;;;;;13.63;35.55;101256.31;4383116;32;33796;-84
2022/03/17 11:07:17;;;;;;;;;;;;;;;13.73;35.58;101265.25;4382231;32;34198;-85
2022/03/17 11:09:45;;;;;;;;;;;;;;;13.92;35.28;101262.72;4366211;32;34410;-80
2022/03/17 11:12:17;;;;;;;;;;;;;;;13.54;35.72;101257.94;4366918;32;33607;-83
2022/03/17 11:14:46;;;;;;;;;;;;;;;13.67;36.07;101269.28;4375640;32;32881;-82
2022/03/17 11:17:14;;;;;;;;;;;;;;;13.68;36.12;101268.31;4368123;32;35063;-84
2022/03/17 11:19:45;;;;;;;;;;;;;;;13.97;35.40;101265.88;4382882;32;34496;-83
2022/03/17 11:22:14;;;;;;;;;;;;;;;14.17;34.87;101265.88;4369254;32;35261;-81
2022/03/17 11:24:41;;;;;;;;;;;;;;;13.92;35.04;101274.28;4370133;32;33564;-81
2022/03/17 11:27:10;;;;;;;;;;;;;;;13.97;35.31;101274.72;4354749;32;35845;-81
2022/03/17 11:29:44;;;;;;;;;;;;;;;14.20;35.82;101278.16;4356220;32;34351;-83
2022/03/17 11:32:24;;;;;;;;;;;;;;;14.16;35.45;101272.19;4362673;32;34247;-81
2022/03/17 11:34:56;;;;;;;;;;;;;;;14.06;35.73;101271.25;4356305;32;32659;-81
2022/03/17 11:37:27;;;;;;;;;;;;;;;14.45;35.41;101270.53;4368208;32;33557;-82
2022/03/17 11:39:55;;;;;;;;;;;;;;;14.39;34.85;101258.53;4366913;32;35763;-82
2022/03/17 11:42:35;;;;;;;;;;;;;;;14.55;35.14;101263.44;4367530;32;34293;-83
2022/03/17 11:45:12;;;;;;;;;;;;;;;13.79;35.95;101264.75;4334825;32;32390;-83
2022/03/17 11:47:43;;;;;;;;;;;;;;;14.15;36.00;101270.47;4375636;32;33753;-84
2022/03/17 11:50:31;;;;;;;;;;;;;;;13.54;37.01;101268.63;4354970;32;34134;-81
2022/03/17 11:53:00;;;;;;;;;;;;;;;13.68;36.93;101270.16;4380544;32;33013;-83
2022/03/17 11:55:31;;;;;;;;;;;;;;;13.49;37.65;101268.16;4355254;32;33139;-83
2022/03/17 11:58:17;;;;;;;;;;;;;;;13.61;37.56;101272.47;4366146;32;33698;-84
2022/03/17 12:00:46;;;;;;;;;;;;;;;13.93;37.44;101273.31;4369286;32;34736;-83
2022/03/17 12:03:24;;;;;;;;;;;;;;;14.53;35.88;101268.03;4364943;32;34242;-83
2022/03/17 12:06:05;;;;;;;;;;;;;;;14.59;35.69;101267.53;4356012;32;32528;-81
2022/03/17 12:08:34;;;;;;;;;;;;;;;14.37;35.33;101265.03;4376179;32;34933;-82
2022/03/17 12:11:02;;;;;;;;;;;;;;;14.02;36.92;101267.16;4360815;32;34656;-82
2022/03/17 12:13:29;;;;;;;;;;;;;;;14.10;37.38;101266.50;4354913;32;35248;-83
2022/03/17 12:15:57;;;;;;;;;;;;;;;14.30;35.73;101261.19;4360158;32;33001;-83
2022/03/17 12:18:24;;;;;;;;;;;;;;;14.45;35.07;101258.00;4353620;32;32296;-82
2022/03/17 12:20:52;;;;;;;;;;;;;;;14.27;35.54;101258.78;4366842;32;34509;-83
2022/03/17 12:23:38;;;;;;;;;;;;;;;14.37;36.17;101258.81;4374074;32;34583;-83
2022/03/17 12:26:08;;;;;;;;;;;;;;;14.32;35.83;101261.06;4367060;32;31747;-83
2022/03/17 12:28:41;;;;;;;;;;;;;;;14.76;34.86;101264.22;4372949;32;34187;-84
2022/03/17 12:31:09;;;;;;;;;;;;;;;15.04;34.27;101260.78;4371775;32;36006;-84
2022/03/17 12:33:42;;;;;;;;;;;;;;;14.86;34.28;101259.75;4367470;32;34679;-83
2022/03/17 12:36:10;;;;;;;;;;;;;;;14.60;33.75;101254.00;4371811;32;32426;-84
2022/03/17 12:38:38;;;;;;;;;;;;;;;14.67;33.45;101257.81;4365223;32;34796;-84
2022/03/17 12:41:10;;;;;;;;;;;;;;;14.43;33.99;101245.72;4365563;32;34955;-83
2022/03/17 12:43:38;;;;;;;;;;;;;;;14.29;34.34;101247.91;4357238;32;34290;-85
2022/03/17 12:46:05;;;;;;;;;;;;;;;14.25;34.89;101254.53;4361208;32;31916;-83
2022/03/17 12:48:34;;;;;;;;;;;;;;;14.81;33.79;101264.63;4337763;32;33718;-84
2022/03/17 12:51:04;;;;;;;;;;;;;;;14.66;34.18;101261.47;4379183;32;35388;-84
2022/03/17 12:53:31;;;;;;;;;;;;;;;14.96;33.94;101257.94;4374851;32;34366;-84
2022/03/17 12:55:59;;;;;;;;;;;;;;;14.84;33.67;101259.03;4351720;32;33095;-84
2022/03/17 12:58:27;;;;;;;;;;;;;;;15.05;32.93;101260.63;4357968;32;33749;-83
2022/03/17 13:00:54;;;;;;;;;;;;;;;14.92;32.28;101259.19;4384630;32;36971;-86
2022/03/17 13:03:25;;;;;;;;;;;;;;;14.74;33.96;101266.19;4358819;32;33310;-83